Terminal Aerodrome Forecast
Issued by NWS North Platte, NE

Home | Current Version | Previous Version | Text Only | Print | Product List | Glossary On
Versions: 1 2 3 4 5 6 7 8 9 10 11 12 13 14
000
FTUS43 KLBF 261721
TAFLBF
TAF
KLBF 261721Z 2618/2718 36022G32KT P6SM FEW250
     FM262300 36016G23KT P6SM SKC
     FM270300 35004KT P6SM SKC
     FM271600 29008KT P6SM SKC=

USA.gov is the U.S. government's official web portal to all federal, state and local government web resources and services.